Time;durP1;ratioP1;P1;durP2;ratioP2;P2;SDS_P1;SDS_P2;PMS_P1;PMS_P2;Temp;Humidity;BMP_temperature;BMP_pressure;BME280_temperature;BME280_humidity;BME280_pressure;Samples;Min_cycle;Max_cycle;Signal;HPM_P1;HPM_P2
2023/01/19 00:01:33;;;;;;;;;;;17.20;43.90;;;;;;5002408;28;19983;-53
2023/01/19 00:03:58;;;;;;;;;;;17.20;44.00;;;;;;5014304;28;19972;-53
2023/01/19 00:06:24;;;;;;;;;;;17.20;44.30;;;;;;5013317;28;19926;-53
2023/01/19 00:08:49;;;;;;;;;;;17.10;44.40;;;;;;4996926;28;19956;-53
2023/01/19 00:11:18;;;;;;;;;;;17.10;44.00;;;;;;5004475;28;19921;-53
2023/01/19 00:13:49;;;;;;;;;;;17.10;44.00;;;;;;5011064;28;20036;-53
2023/01/19 00:16:18;;;;;;;;;;;17.10;44.30;;;;;;5006816;28;19918;-53
2023/01/19 00:18:44;;;;;;;;;;;17.10;44.40;;;;;;5016506;28;19913;-53
2023/01/19 00:21:09;;;;;;;;;;;17.00;44.30;;;;;;4997903;28;20366;-53
2023/01/19 00:23:35;;;;;;;;;;;17.00;43.90;;;;;;5028666;28;19922;-53
2023/01/19 00:26:00;;;;;;;;;;;17.00;43.80;;;;;;4998851;28;19921;-53
2023/01/19 00:28:25;;;;;;;;;;;17.10;43.90;;;;;;5013963;28;19909;-53
2023/01/19 00:30:51;;;;;;;;;;;17.00;43.90;;;;;;5013135;28;19948;-53
2023/01/19 00:33:16;;;;;;;;;;;17.00;44.20;;;;;;5005559;28;19914;-53
2023/01/19 00:35:42;;;;;;;;;;;17.00;44.10;;;;;;5002055;28;19960;-53
2023/01/19 00:38:08;;;;;;;;;;;16.90;44.30;;;;;;5015928;28;19960;-53
2023/01/19 00:40:33;;;;;;;;;;;16.90;44.30;;;;;;5008307;28;19957;-54
2023/01/19 00:42:59;;;;;;;;;;;16.90;44.20;;;;;;5004593;28;20333;-51
2023/01/19 00:45:24;;;;;;;;;;;16.90;44.20;;;;;;5000102;28;20297;-53
2023/01/19 00:47:56;;;;;;;;;;;16.90;44.10;;;;;;5013947;28;19914;-52
2023/01/19 00:50:25;;;;;;;;;;;16.80;44.20;;;;;;5015566;28;19985;-52
2023/01/19 00:52:51;;;;;;;;;;;16.90;44.10;;;;;;5007497;28;20369;-52
2023/01/19 00:55:16;;;;;;;;;;;16.90;44.20;;;;;;5010026;28;19914;-52
2023/01/19 00:57:41;;;;;;;;;;;16.80;43.90;;;;;;4996917;28;20357;-51
2023/01/19 01:00:10;;;;;;;;;;;16.80;44.10;;;;;;4997452;28;19921;-52
2023/01/19 01:02:36;;;;;;;;;;;16.80;44.00;;;;;;4996844;28;20437;-52
2023/01/19 01:05:02;;;;;;;;;;;16.70;44.00;;;;;;5003684;28;19913;-52
2023/01/19 01:07:28;;;;;;;;;;;16.70;44.40;;;;;;4996198;28;19921;-52
2023/01/19 01:09:53;;;;;;;;;;;16.70;44.10;;;;;;5013295;28;19925;-52
2023/01/19 01:12:18;;;;;;;;;;;16.70;44.10;;;;;;5014576;28;20008;-52
2023/01/19 01:14:44;;;;;;;;;;;16.60;44.10;;;;;;5015771;28;20370;-52
2023/01/19 01:17:10;;;;;;;;;;;16.60;44.10;;;;;;5002784;28;20366;-52
2023/01/19 01:19:39;;;;;;;;;;;16.60;44.20;;;;;;5017619;28;19914;-52
2023/01/19 01:22:04;;;;;;;;;;;16.60;44.10;;;;;;5014629;28;19992;-52
2023/01/19 01:24:30;;;;;;;;;;;16.60;44.20;;;;;;5000674;28;19934;-52
2023/01/19 01:26:56;;;;;;;;;;;16.60;44.10;;;;;;5001031;28;19916;-52
2023/01/19 01:29:21;;;;;;;;;;;16.50;44.10;;;;;;5015202;28;19996;-52
2023/01/19 01:31:47;;;;;;;;;;;16.50;44.10;;;;;;5007533;28;19914;-52
2023/01/19 01:34:12;;;;;;;;;;;16.50;44.20;;;;;;4997525;28;20214;-52
2023/01/19 01:36:38;;;;;;;;;;;16.40;44.20;;;;;;5001203;28;19913;-52
2023/01/19 01:39:03;;;;;;;;;;;16.40;44.10;;;;;;4999049;28;19937;-52
2023/01/19 01:41:28;;;;;;;;;;;16.40;44.00;;;;;;5007522;28;20345;-52
2023/01/19 01:43:57;;;;;;;;;;;16.50;44.10;;;;;;5015847;28;19914;-52
2023/01/19 01:46:22;;;;;;;;;;;16.40;44.20;;;;;;5014494;28;20008;-52
2023/01/19 01:48:49;;;;;;;;;;;16.30;44.30;;;;;;5008199;28;19956;-52
2023/01/19 01:51:23;;;;;;;;;;;16.30;44.10;;;;;;4995792;28;19964;-52
2023/01/19 01:53:59;;;;;;;;;;;16.40;44.00;;;;;;5011994;28;20397;-52
2023/01/19 01:56:27;;;;;;;;;;;16.30;44.50;;;;;;4996379;28;20365;-52
2023/01/19 01:58:52;;;;;;;;;;;16.30;44.40;;;;;;5028232;28;19914;-52
2023/01/19 02:04:02;;;;;;;;;;;16.30;44.40;;;;;;5003335;28;19964;-52
2023/01/19 02:06:27;;;;;;;;;;;16.20;44.00;;;;;;4996083;28;19910;-52
2023/01/19 02:14:22;;;;;;;;;;;16.30;44.00;;;;;;5023693;28;19937;-52
2023/01/19 02:16:48;;;;;;;;;;;16.40;43.70;;;;;;5009635;28;19913;-52
2023/01/19 02:19:15;;;;;;;;;;;16.50;43.30;;;;;;5012224;28;19917;-52
2023/01/19 02:21:45;;;;;;;;;;;16.70;43.20;;;;;;5035065;28;19920;-52
2023/01/19 02:24:10;;;;;;;;;;;16.90;43.00;;;;;;5014636;28;19941;-52
2023/01/19 02:26:40;;;;;;;;;;;17.20;42.40;;;;;;5008269;28;19987;-52
2023/01/19 02:29:09;;;;;;;;;;;17.60;42.00;;;;;;4994236;28;20016;-51
2023/01/19 02:31:36;;;;;;;;;;;18.10;41.20;;;;;;5025849;28;19918;-50
2023/01/19 02:34:01;;;;;;;;;;;18.40;40.70;;;;;;4994603;28;19916;-53
2023/01/19 02:36:37;;;;;;;;;;;18.60;40.30;;;;;;5008416;28;19957;-52
2023/01/19 02:39:02;;;;;;;;;;;18.60;40.20;;;;;;5035795;28;19921;-52
2023/01/19 02:41:29;;;;;;;;;;;18.50;40.40;;;;;;5025608;28;19920;-52
2023/01/19 02:43:55;;;;;;;;;;;18.40;40.70;;;;;;4997256;28;19994;-52
2023/01/19 02:46:20;;;;;;;;;;;18.30;40.80;;;;;;5030305;28;19925;-52
2023/01/19 02:48:46;;;;;;;;;;;18.20;41.10;;;;;;5010615;28;20310;-52
2023/01/19 02:51:20;;;;;;;;;;;18.10;41.10;;;;;;5010996;28;19968;-52
2023/01/19 02:53:54;;;;;;;;;;;18.00;41.00;;;;;;5013354;28;19913;-52
2023/01/19 02:56:39;;;;;;;;;;;17.90;41.10;;;;;;5007831;28;20433;-51
2023/01/19 02:59:25;;;;;;;;;;;17.90;41.20;;;;;;5008158;28;19971;-52
2023/01/19 03:02:09;;;;;;;;;;;17.90;41.30;;;;;;5009860;28;20300;-52
2023/01/19 03:04:41;;;;;;;;;;;17.80;41.00;;;;;;5010929;28;19944;-52
2023/01/19 03:07:12;;;;;;;;;;;17.80;41.20;;;;;;5037708;28;19917;-52
2023/01/19 03:09:53;;;;;;;;;;;17.90;41.20;;;;;;5004446;28;19914;-51
2023/01/19 03:12:33;;;;;;;;;;;17.90;41.30;;;;;;5006906;28;19928;-52
2023/01/19 03:15:00;;;;;;;;;;;17.90;41.50;;;;;;5011133;28;19920;-54
2023/01/19 03:17:25;;;;;;;;;;;17.80;41.50;;;;;;4993542;28;20362;-53
2023/01/19 03:19:50;;;;;;;;;;;17.70;41.40;;;;;;5007107;28;19910;-52
2023/01/19 03:22:18;;;;;;;;;;;17.70;41.30;;;;;;4992746;28;19928;-53
2023/01/19 03:24:44;;;;;;;;;;;17.70;41.40;;;;;;5025068;28;19918;-53
2023/01/19 03:27:13;;;;;;;;;;;17.70;41.20;;;;;;5000463;28;19972;-52
2023/01/19 03:29:39;;;;;;;;;;;17.70;41.50;;;;;;4993490;28;20686;-51
2023/01/19 03:32:09;;;;;;;;;;;17.70;41.70;;;;;;5024732;28;19953;-53
2023/01/19 03:34:35;;;;;;;;;;;17.70;41.90;;;;;;5036096;28;19909;-54
2023/01/19 03:37:01;;;;;;;;;;;17.60;41.80;;;;;;4998637;28;19921;-54
2023/01/19 03:39:27;;;;;;;;;;;17.60;41.90;;;;;;5028350;28;19997;-52
2023/01/19 03:41:53;;;;;;;;;;;17.60;41.90;;;;;;5005739;28;19956;-52
2023/01/19 03:44:19;;;;;;;;;;;17.60;41.90;;;;;;5011796;28;19928;-53
2023/01/19 03:46:45;;;;;;;;;;;17.60;42.20;;;;;;5015823;28;19909;-52
2023/01/19 03:49:10;;;;;;;;;;;17.50;41.90;;;;;;5014763;28;19924;-52
2023/01/19 03:51:36;;;;;;;;;;;17.50;42.10;;;;;;4999598;28;19921;-52
2023/01/19 03:54:03;;;;;;;;;;;17.50;42.10;;;;;;5035067;28;19914;-52
2023/01/19 03:56:28;;;;;;;;;;;17.50;42.20;;;;;;4996134;28;19914;-51
2023/01/19 03:58:54;;;;;;;;;;;17.50;42.20;;;;;;4996705;28;19918;-53
2023/01/19 04:01:21;;;;;;;;;;;17.50;42.10;;;;;;5010663;28;19918;-52
2023/01/19 04:03:47;;;;;;;;;;;17.40;42.20;;;;;;4997097;28;19918;-52
2023/01/19 04:06:12;;;;;;;;;;;17.40;42.20;;;;;;5002352;28;19989;-52
2023/01/19 04:08:39;;;;;;;;;;;17.40;42.20;;;;;;5014030;28;19914;-52
2023/01/19 04:11:05;;;;;;;;;;;17.40;42.20;;;;;;5014637;28;19918;-52
2023/01/19 04:13:30;;;;;;;;;;;17.40;42.20;;;;;;5015713;28;19918;-52
2023/01/19 04:16:00;;;;;;;;;;;17.40;42.20;;;;;;5015515;28;20008;-51
2023/01/19 04:18:26;;;;;;;;;;;17.40;42.20;;;;;;5012973;28;19914;-52
2023/01/19 04:20:51;;;;;;;;;;;17.40;42.20;;;;;;5004119;28;19920;-52
2023/01/19 04:23:17;;;;;;;;;;;17.40;42.20;;;;;;4996608;28;20293;-52
2023/01/19 04:25:42;;;;;;;;;;;17.30;42.20;;;;;;4998776;28;19921;-52
2023/01/19 04:28:07;;;;;;;;;;;17.30;42.20;;;;;;4996310;28;19921;-52
2023/01/19 04:30:33;;;;;;;;;;;17.30;42.20;;;;;;5008381;28;19921;-52
2023/01/19 04:32:58;;;;;;;;;;;17.30;42.20;;;;;;5008438;28;19921;-52
2023/01/19 04:35:24;;;;;;;;;;;17.30;43.00;;;;;;5012471;28;19913;-52
2023/01/19 04:37:49;;;;;;;;;;;17.30;42.50;;;;;;5006366;28;19960;-52
2023/01/19 04:40:15;;;;;;;;;;;17.30;42.40;;;;;;4996177;28;19941;-52
2023/01/19 04:42:44;;;;;;;;;;;17.30;42.30;;;;;;5002640;28;19917;-52
2023/01/19 04:45:10;;;;;;;;;;;17.40;42.30;;;;;;5006716;28;19913;-52
2023/01/19 04:47:35;;;;;;;;;;;17.40;42.50;;;;;;5012078;28;19914;-52
2023/01/19 04:50:01;;;;;;;;;;;17.30;42.40;;;;;;5032164;28;19914;-52
2023/01/19 04:52:33;;;;;;;;;;;17.40;42.30;;;;;;5002931;28;19988;-52
2023/01/19 04:55:00;;;;;;;;;;;17.40;42.30;;;;;;4996109;28;20353;-52
2023/01/19 04:57:25;;;;;;;;;;;17.30;42.20;;;;;;4994939;28;19917;-52
2023/01/19 04:59:50;;;;;;;;;;;17.30;42.40;;;;;;5007831;28;19909;-53
2023/01/19 05:02:16;;;;;;;;;;;17.40;42.30;;;;;;5000650;28;19914;-53
2023/01/19 05:04:42;;;;;;;;;;;17.40;42.40;;;;;;4997429;28;19956;-53
2023/01/19 05:07:07;;;;;;;;;;;17.40;42.40;;;;;;5011550;28;19967;-53
2023/01/19 05:09:33;;;;;;;;;;;17.40;42.40;;;;;;5014254;28;19928;-53
2023/01/19 05:11:58;;;;;;;;;;;17.40;42.40;;;;;;5002030;28;20374;-53
2023/01/19 05:14:24;;;;;;;;;;;17.30;42.40;;;;;;5015206;28;20382;-53
2023/01/19 05:16:49;;;;;;;;;;;17.30;42.50;;;;;;5001619;28;20548;-53
2023/01/19 05:19:14;;;;;;;;;;;17.30;43.10;;;;;;4998639;28;19922;-53
2023/01/19 05:21:40;;;;;;;;;;;17.30;42.70;;;;;;5011082;28;20012;-53
2023/01/19 05:24:06;;;;;;;;;;;17.30;42.70;;;;;;4997189;28;19922;-52
2023/01/19 05:26:31;;;;;;;;;;;17.20;42.80;;;;;;5012923;28;20016;-52
2023/01/19 05:28:56;;;;;;;;;;;17.20;42.70;;;;;;5002708;28;20009;-52
2023/01/19 05:31:22;;;;;;;;;;;17.30;42.80;;;;;;4996054;28;19910;-52
2023/01/19 05:33:47;;;;;;;;;;;17.30;42.80;;;;;;5001351;28;19936;-53
2023/01/19 05:36:13;;;;;;;;;;;17.20;42.80;;;;;;4995582;28;20647;-53
2023/01/19 05:38:38;;;;;;;;;;;17.30;42.90;;;;;;5000221;28;20389;-52
2023/01/19 05:41:04;;;;;;;;;;;17.30;42.90;;;;;;4995307;28;20392;-53
2023/01/19 05:43:29;;;;;;;;;;;17.20;42.80;;;;;;5013236;28;20447;-52
2023/01/19 05:45:55;;;;;;;;;;;17.20;42.70;;;;;;5002467;28;19913;-52
2023/01/19 05:48:20;;;;;;;;;;;17.20;42.80;;;;;;4997994;28;19922;-52
2023/01/19 05:50:48;;;;;;;;;;;17.20;42.80;;;;;;4995154;28;19913;-52
2023/01/19 05:53:13;;;;;;;;;;;17.20;42.70;;;;;;4996300;28;20579;-53
2023/01/19 05:55:39;;;;;;;;;;;17.20;42.60;;;;;;4994946;28;19945;-52
2023/01/19 05:58:04;;;;;;;;;;;17.20;42.80;;;;;;4994741;28;19914;-52
2023/01/19 06:00:30;;;;;;;;;;;17.20;42.80;;;;;;5012664;28;19917;-52
2023/01/19 06:02:55;;;;;;;;;;;17.30;42.70;;;;;;5012408;28;19921;-53
2023/01/19 06:05:21;;;;;;;;;;;17.30;42.70;;;;;;5015067;28;19944;-52
2023/01/19 06:07:46;;;;;;;;;;;17.20;42.80;;;;;;4999475;28;19925;-52
2023/01/19 06:10:11;;;;;;;;;;;17.20;42.70;;;;;;5005448;28;19924;-52
2023/01/19 06:12:40;;;;;;;;;;;17.20;42.70;;;;;;5014540;28;19914;-53
2023/01/19 06:15:06;;;;;;;;;;;17.20;42.70;;;;;;5013439;28;19921;-52
2023/01/19 06:17:31;;;;;;;;;;;17.20;42.80;;;;;;5014614;28;19944;-52
2023/01/19 06:19:57;;;;;;;;;;;17.20;42.80;;;;;;5005363;28;20025;-53
2023/01/19 06:22:23;;;;;;;;;;;17.20;42.80;;;;;;4994651;28;19914;-52
2023/01/19 06:24:48;;;;;;;;;;;17.20;43.00;;;;;;5007478;28;19914;-52
2023/01/19 06:27:14;;;;;;;;;;;17.10;42.90;;;;;;5008798;28;19926;-52
2023/01/19 06:29:39;;;;;;;;;;;17.10;42.90;;;;;;4995339;28;20013;-52
2023/01/19 06:32:05;;;;;;;;;;;17.10;42.90;;;;;;4994912;28;19914;-52
2023/01/19 06:34:30;;;;;;;;;;;17.20;42.90;;;;;;4999390;28;19968;-52
2023/01/19 06:36:56;;;;;;;;;;;17.20;42.90;;;;;;4994155;28;19957;-53
2023/01/19 06:39:21;;;;;;;;;;;17.20;43.00;;;;;;5004098;28;19920;-52
2023/01/19 06:41:47;;;;;;;;;;;17.20;43.10;;;;;;5011271;28;20361;-52
2023/01/19 06:44:12;;;;;;;;;;;17.10;42.90;;;;;;5012197;28;20374;-52
2023/01/19 06:46:38;;;;;;;;;;;17.20;42.90;;;;;;4994336;28;19918;-52
2023/01/19 06:49:03;;;;;;;;;;;17.20;42.90;;;;;;4998336;28;19936;-53
2023/01/19 06:51:28;;;;;;;;;;;17.20;42.90;;;;;;5008406;28;19918;-52
2023/01/19 06:53:54;;;;;;;;;;;17.20;42.80;;;;;;4999746;28;20266;-52
2023/01/19 06:56:19;;;;;;;;;;;17.20;42.80;;;;;;5013987;28;19995;-51
2023/01/19 06:58:45;;;;;;;;;;;17.20;42.90;;;;;;5008116;28;19921;-52
2023/01/19 07:01:11;;;;;;;;;;;17.20;42.90;;;;;;4994099;28;19918;-52
2023/01/19 07:03:37;;;;;;;;;;;17.20;42.90;;;;;;4998858;28;19921;-52
2023/01/19 07:06:05;;;;;;;;;;;17.20;43.00;;;;;;5001641;28;20012;-52
2023/01/19 07:08:31;;;;;;;;;;;17.20;43.20;;;;;;5004342;28;19937;-52
2023/01/19 07:11:06;;;;;;;;;;;17.10;43.10;;;;;;4999375;28;20378;-52
2023/01/19 07:13:32;;;;;;;;;;;17.10;43.20;;;;;;5000395;28;19993;-53
2023/01/19 07:15:58;;;;;;;;;;;17.10;43.20;;;;;;5013788;28;19913;-51
2023/01/19 07:18:23;;;;;;;;;;;17.10;43.10;;;;;;5003630;28;20392;-52
2023/01/19 07:20:48;;;;;;;;;;;17.10;43.10;;;;;;5007874;28;19917;-52
2023/01/19 07:23:14;;;;;;;;;;;17.10;43.10;;;;;;5002829;28;19977;-53
2023/01/19 07:25:40;;;;;;;;;;;17.10;43.20;;;;;;5004738;28;19992;-52
2023/01/19 07:28:05;;;;;;;;;;;17.10;43.20;;;;;;5006232;28;19924;-52
2023/01/19 07:30:31;;;;;;;;;;;17.10;43.20;;;;;;5010467;28;19921;-52
2023/01/19 07:32:56;;;;;;;;;;;17.10;43.20;;;;;;5004809;28;19914;-53
2023/01/19 07:35:22;;;;;;;;;;;17.10;43.30;;;;;;5010751;28;19920;-53
2023/01/19 07:37:48;;;;;;;;;;;17.10;43.30;;;;;;5017642;28;20004;-52
2023/01/19 07:40:13;;;;;;;;;;;17.10;43.30;;;;;;4999114;28;19945;-52
2023/01/19 07:42:39;;;;;;;;;;;17.10;43.20;;;;;;5015131;28;19940;-52
2023/01/19 07:45:04;;;;;;;;;;;17.10;43.30;;;;;;5010949;28;20400;-51
2023/01/19 07:47:30;;;;;;;;;;;17.10;43.30;;;;;;5020849;28;20370;-54
2023/01/19 07:49:55;;;;;;;;;;;17.10;43.30;;;;;;5015484;28;20404;-53
2023/01/19 07:52:21;;;;;;;;;;;17.20;43.30;;;;;;5017650;28;19910;-51
2023/01/19 07:54:49;;;;;;;;;;;17.10;43.20;;;;;;5004895;28;19921;-51
2023/01/19 07:57:15;;;;;;;;;;;17.10;43.20;;;;;;4999852;28;19952;-52
2023/01/19 07:59:41;;;;;;;;;;;17.10;43.30;;;;;;5017735;28;19909;-52
2023/01/19 08:02:07;;;;;;;;;;;17.10;43.30;;;;;;5004100;28;19922;-51
2023/01/19 08:04:32;;;;;;;;;;;17.20;43.10;;;;;;5033271;28;19917;-52
2023/01/19 08:06:58;;;;;;;;;;;17.60;42.40;;;;;;5000039;28;19914;-51
2023/01/19 08:09:23;;;;;;;;;;;18.50;41.60;;;;;;5014033;28;20060;-52
2023/01/19 08:11:49;;;;;;;;;;;19.10;40.80;;;;;;5009590;28;19924;-51
2023/01/19 08:14:14;;;;;;;;;;;19.60;39.90;;;;;;5000469;28;19988;-52
2023/01/19 08:16:40;;;;;;;;;;;20.10;38.80;;;;;;5005536;28;19921;-52
2023/01/19 08:19:05;;;;;;;;;;;20.60;37.90;;;;;;5008520;28;19913;-51
2023/01/19 08:21:32;;;;;;;;;;;21.10;37.40;;;;;;5008314;28;20396;-52
2023/01/19 08:23:57;;;;;;;;;;;21.40;36.80;;;;;;5009206;28;19922;-52
2023/01/19 08:26:30;;;;;;;;;;;21.60;36.60;;;;;;5003630;28;19921;-52
2023/01/19 08:28:56;;;;;;;;;;;21.90;36.40;;;;;;5013246;28;19920;-52
2023/01/19 08:31:22;;;;;;;;;;;22.00;36.10;;;;;;5011079;28;19924;-52
2023/01/19 08:33:47;;;;;;;;;;;22.10;35.90;;;;;;5012358;28;19913;-53
2023/01/19 08:36:13;;;;;;;;;;;22.20;35.80;;;;;;5009821;28;19921;-53
2023/01/19 08:38:42;;;;;;;;;;;22.20;35.80;;;;;;5013924;28;19914;-52
2023/01/19 08:41:08;;;;;;;;;;;22.40;35.60;;;;;;5011956;28;20007;-53
2023/01/19 08:43:33;;;;;;;;;;;22.40;35.50;;;;;;5005290;28;20421;-53
2023/01/19 08:45:59;;;;;;;;;;;22.50;35.60;;;;;;5006700;28;19957;-52
2023/01/19 08:48:24;;;;;;;;;;;22.60;35.60;;;;;;5002174;28;19918;-52
2023/01/19 08:50:50;;;;;;;;;;;22.60;36.20;;;;;;5006495;28;19914;-51
2023/01/19 08:53:19;;;;;;;;;;;22.60;35.60;;;;;;5006243;28;19913;-53
2023/01/19 08:55:45;;;;;;;;;;;22.60;35.40;;;;;;5010468;28;20385;-53
2023/01/19 08:58:10;;;;;;;;;;;22.70;35.80;;;;;;5009221;28;20073;-53
2023/01/19 09:00:39;;;;;;;;;;;22.70;35.40;;;;;;5019786;28;19920;-52
2023/01/19 09:03:06;;;;;;;;;;;22.70;35.40;;;;;;5013075;28;19923;-52
2023/01/19 09:05:34;;;;;;;;;;;22.70;35.40;;;;;;5011578;28;19929;-52
2023/01/19 09:08:00;;;;;;;;;;;22.70;35.50;;;;;;5009855;28;20294;-52
2023/01/19 09:10:27;;;;;;;;;;;22.70;35.30;;;;;;5006545;28;19910;-51
2023/01/19 09:12:52;;;;;;;;;;;22.80;35.40;;;;;;5003475;28;19914;-52
2023/01/19 09:15:18;;;;;;;;;;;22.80;35.30;;;;;;5003775;28;20409;-52
2023/01/19 09:17:43;;;;;;;;;;;22.90;35.20;;;;;;5010705;28;20377;-54
2023/01/19 09:20:09;;;;;;;;;;;22.90;35.10;;;;;;5012169;28;19958;-52
2023/01/19 09:22:34;;;;;;;;;;;22.90;35.10;;;;;;5007061;28;19925;-52
2023/01/19 09:25:00;;;;;;;;;;;23.00;35.20;;;;;;5008216;28;19910;-53
2023/01/19 09:27:25;;;;;;;;;;;23.00;35.10;;;;;;5002631;28;19914;-52
2023/01/19 09:29:53;;;;;;;;;;;23.00;35.10;;;;;;5004123;28;19914;-52
2023/01/19 09:32:19;;;;;;;;;;;23.00;35.10;;;;;;5004238;28;19914;-52
2023/01/19 09:34:44;;;;;;;;;;;23.00;35.00;;;;;;5038945;28;19918;-53
2023/01/19 09:37:10;;;;;;;;;;;23.00;35.30;;;;;;5008796;28;19918;-52
2023/01/19 09:39:35;;;;;;;;;;;23.00;35.20;;;;;;5016239;28;19921;-52
2023/01/19 09:42:19;;;;;;;;;;;23.00;35.20;;;;;;5010884;28;20017;-53
2023/01/19 09:44:45;;;;;;;;;;;23.00;35.10;;;;;;5001905;28;19925;-52
2023/01/19 09:47:13;;;;;;;;;;;23.10;35.20;;;;;;5003260;28;20392;-52
2023/01/19 09:49:40;;;;;;;;;;;23.00;35.20;;;;;;5003920;28;20004;-53
2023/01/19 09:52:06;;;;;;;;;;;23.10;35.40;;;;;;5035420;28;19921;-52
2023/01/19 09:54:34;;;;;;;;;;;23.10;35.20;;;;;;5008732;28;20327;-53
2023/01/19 09:57:00;;;;;;;;;;;23.10;35.30;;;;;;5033079;28;19922;-52
2023/01/19 09:59:28;;;;;;;;;;;23.10;35.40;;;;;;5005988;28;19913;-52
2023/01/19 10:01:54;;;;;;;;;;;23.20;35.40;;;;;;5000648;28;20003;-52
2023/01/19 10:04:26;;;;;;;;;;;23.20;35.50;;;;;;4995590;28;20334;-52
2023/01/19 10:06:55;;;;;;;;;;;23.20;35.50;;;;;;5014705;28;19960;-51
2023/01/19 10:09:27;;;;;;;;;;;23.20;35.30;;;;;;5007521;28;19918;-52
2023/01/19 10:12:19;;;;;;;;;;;23.30;35.30;;;;;;5033235;28;19917;-52
2023/01/19 10:14:46;;;;;;;;;;;23.30;35.20;;;;;;5006141;28;20384;-53
2023/01/19 10:17:18;;;;;;;;;;;23.30;35.20;;;;;;5004857;28;19923;-53
2023/01/19 10:19:44;;;;;;;;;;;23.30;35.20;;;;;;5007459;28;20000;-52
2023/01/19 10:22:20;;;;;;;;;;;23.30;35.20;;;;;;5003923;28;19918;-52
2023/01/19 10:24:45;;;;;;;;;;;23.30;35.20;;;;;;5003813;28;19925;-53
2023/01/19 10:27:17;;;;;;;;;;;23.40;35.30;;;;;;5000633;28;20021;-52
2023/01/19 10:29:42;;;;;;;;;;;23.40;35.30;;;;;;5005872;28;19969;-53
2023/01/19 10:32:29;;;;;;;;;;;23.30;35.20;;;;;;5036537;28;19941;-53
2023/01/19 10:34:56;;;;;;;;;;;23.30;35.30;;;;;;4996429;28;20433;-53
2023/01/19 10:37:38;;;;;;;;;;;23.30;35.20;;;;;;5007811;28;19925;-53
2023/01/19 10:40:09;;;;;;;;;;;23.40;35.20;;;;;;5002030;28;19909;-52
2023/01/19 10:42:35;;;;;;;;;;;23.30;35.20;;;;;;5010008;28;20007;-52
2023/01/19 10:45:00;;;;;;;;;;;23.40;35.30;;;;;;5003460;28;20337;-53
2023/01/19 10:47:31;;;;;;;;;;;23.30;35.40;;;;;;5014865;28;20374;-53
2023/01/19 10:49:56;;;;;;;;;;;23.40;35.20;;;;;;5015294;28;19920;-53
2023/01/19 10:52:27;;;;;;;;;;;23.30;35.80;;;;;;5001233;28;19913;-53
2023/01/19 10:54:53;;;;;;;;;;;23.30;35.20;;;;;;5040900;28;19921;-52
2023/01/19 10:57:25;;;;;;;;;;;23.40;35.30;;;;;;5012518;28;20357;-54
2023/01/19 10:59:50;;;;;;;;;;;23.40;35.30;;;;;;5003038;28;20247;-52
2023/01/19 11:02:25;;;;;;;;;;;23.40;35.30;;;;;;5011672;28;19937;-52
2023/01/19 11:04:51;;;;;;;;;;;23.40;35.30;;;;;;5012492;28;20017;-51
2023/01/19 11:07:31;;;;;;;;;;;23.50;35.20;;;;;;5003202;28;20429;-53
2023/01/19 11:10:14;;;;;;;;;;;23.50;35.20;;;;;;5010255;28;19914;-52
2023/01/19 11:12:41;;;;;;;;;;;23.40;35.30;;;;;;5009654;28;20289;-52
2023/01/19 11:15:33;;;;;;;;;;;23.50;35.40;;;;;;5013600;28;19909;-51
2023/01/19 11:17:59;;;;;;;;;;;23.50;35.40;;;;;;5005545;28;19921;-54
2023/01/19 11:20:25;;;;;;;;;;;23.50;35.40;;;;;;5016255;28;20341;-52
2023/01/19 11:23:14;;;;;;;;;;;23.40;35.40;;;;;;5014769;28;19929;-52
2023/01/19 11:25:40;;;;;;;;;;;23.40;35.60;;;;;;5007066;28;19943;-52
2023/01/19 11:28:12;;;;;;;;;;;23.40;35.70;;;;;;5040721;28;20420;-53
2023/01/19 11:30:51;;;;;;;;;;;23.50;35.70;;;;;;5052861;28;20421;-53
2023/01/19 11:33:24;;;;;;;;;;;23.50;35.60;;;;;;5040432;28;19913;-52
2023/01/19 11:35:50;;;;;;;;;;;23.50;35.70;;;;;;5013804;28;20000;-52
2023/01/19 11:38:19;;;;;;;;;;;23.50;35.60;;;;;;5033633;28;20000;-53
2023/01/19 11:40:49;;;;;;;;;;;23.50;35.60;;;;;;5008786;28;20336;-52
2023/01/19 11:43:15;;;;;;;;;;;23.50;35.60;;;;;;5005987;28;20469;-52
2023/01/19 11:45:40;;;;;;;;;;;23.50;35.60;;;;;;5004185;28;20112;-52
2023/01/19 11:48:06;;;;;;;;;;;23.50;35.50;;;;;;5012718;28;19913;-52
2023/01/19 11:50:41;;;;;;;;;;;23.60;35.50;;;;;;5003004;28;19984;-52
2023/01/19 11:53:19;;;;;;;;;;;23.70;35.50;;;;;;5034741;28;19921;-52
2023/01/19 11:55:44;;;;;;;;;;;23.60;35.50;;;;;;5005806;28;19921;-53
2023/01/19 11:58:12;;;;;;;;;;;23.60;35.50;;;;;;5009686;28;19918;-53
2023/01/19 12:00:45;;;;;;;;;;;23.60;35.60;;;;;;5046799;28;20596;-51
2023/01/19 12:03:43;;;;;;;;;;;23.60;35.50;;;;;;5038882;28;19941;-53
2023/01/19 12:06:09;;;;;;;;;;;23.60;35.50;;;;;;5008665;28;19961;-52
2023/01/19 12:08:36;;;;;;;;;;;23.60;35.50;;;;;;5034739;28;19922;-52
2023/01/19 12:11:01;;;;;;;;;;;23.60;35.40;;;;;;5003578;28;19913;-51
2023/01/19 12:13:27;;;;;;;;;;;23.70;35.70;;;;;;5039823;28;19959;-52
2023/01/19 12:16:16;;;;;;;;;;;23.60;35.70;;;;;;5002310;28;19914;-52
2023/01/19 12:18:42;;;;;;;;;;;23.60;35.80;;;;;;5007872;28;19909;-51
2023/01/19 12:21:08;;;;;;;;;;;23.60;35.80;;;;;;5005586;28;19932;-51
2023/01/19 12:23:43;;;;;;;;;;;23.70;35.80;;;;;;5033777;28;19921;-52
2023/01/19 12:26:11;;;;;;;;;;;23.60;35.70;;;;;;5006509;28;19918;-52
2023/01/19 12:28:38;;;;;;;;;;;23.70;35.80;;;;;;4998056;28;19964;-52
2023/01/19 12:31:03;;;;;;;;;;;23.70;35.80;;;;;;5004077;28;20377;-52
2023/01/19 12:33:38;;;;;;;;;;;23.60;35.80;;;;;;5010061;28;19964;-52
2023/01/19 12:36:05;;;;;;;;;;;23.60;36.00;;;;;;4995899;28;20289;-52
2023/01/19 12:38:40;;;;;;;;;;;23.60;36.10;;;;;;5005652;28;19921;-51
2023/01/19 12:41:24;;;;;;;;;;;23.70;36.00;;;;;;5009466;28;20417;-52
2023/01/19 12:44:08;;;;;;;;;;;23.70;36.00;;;;;;5006518;28;20016;-51
2023/01/19 12:46:33;;;;;;;;;;;23.70;35.90;;;;;;5036864;28;20294;-53
2023/01/19 12:49:03;;;;;;;;;;;23.70;36.00;;;;;;5003540;28;19918;-52
2023/01/19 12:51:28;;;;;;;;;;;23.60;35.90;;;;;;4996519;28;20008;-53
2023/01/19 12:53:54;;;;;;;;;;;23.60;35.80;;;;;;5039054;28;20120;-52
2023/01/19 12:56:21;;;;;;;;;;;23.50;35.70;;;;;;5036567;28;20465;-52
2023/01/19 12:58:47;;;;;;;;;;;23.50;35.90;;;;;;5032741;28;20009;-52
2023/01/19 13:01:17;;;;;;;;;;;23.50;35.80;;;;;;5002922;28;19921;-52
2023/01/19 13:03:43;;;;;;;;;;;23.60;35.80;;;;;;5040669;28;19917;-52
2023/01/19 13:06:08;;;;;;;;;;;23.70;35.80;;;;;;5009008;28;19968;-52
2023/01/19 13:08:52;;;;;;;;;;;23.70;35.80;;;;;;4999188;28;19921;-52
2023/01/19 13:11:18;;;;;;;;;;;23.70;35.60;;;;;;5010668;28;19910;-52
2023/01/19 13:13:46;;;;;;;;;;;23.80;35.80;;;;;;5002605;28;19914;-52
2023/01/19 13:16:18;;;;;;;;;;;23.80;35.70;;;;;;4998984;28;19960;-52
2023/01/19 13:18:57;;;;;;;;;;;23.80;35.60;;;;;;5010195;28;19913;-52
2023/01/19 13:21:28;;;;;;;;;;;23.80;35.60;;;;;;5010689;28;19917;-52
2023/01/19 13:24:00;;;;;;;;;;;23.90;35.60;;;;;;5003182;28;20349;-52
2023/01/19 13:26:26;;;;;;;;;;;23.80;35.50;;;;;;5033256;28;19914;-52
2023/01/19 13:28:53;;;;;;;;;;;23.90;35.60;;;;;;5008104;28;20366;-52
2023/01/19 13:31:19;;;;;;;;;;;23.90;35.70;;;;;;4997145;28;19921;-52
2023/01/19 13:33:51;;;;;;;;;;;23.90;35.70;;;;;;5033044;28;19929;-52
2023/01/19 13:36:19;;;;;;;;;;;23.90;35.60;;;;;;5030750;28;19918;-52
2023/01/19 13:38:44;;;;;;;;;;;23.90;35.60;;;;;;5001481;28;19921;-53
2023/01/19 13:41:11;;;;;;;;;;;23.90;35.60;;;;;;5012517;28;19917;-53
2023/01/19 13:43:36;;;;;;;;;;;23.90;35.60;;;;;;5047411;28;19964;-52
2023/01/19 13:46:03;;;;;;;;;;;23.90;35.60;;;;;;5000537;28;19917;-53
2023/01/19 13:48:28;;;;;;;;;;;24.00;35.60;;;;;;5010694;28;19913;-52
2023/01/19 13:50:57;;;;;;;;;;;24.00;35.60;;;;;;4998547;28;19913;-52
2023/01/19 13:53:23;;;;;;;;;;;24.00;35.60;;;;;;5008578;28;19921;-53
2023/01/19 13:56:04;;;;;;;;;;;24.00;35.60;;;;;;5010292;28;19918;-52
2023/01/19 13:58:30;;;;;;;;;;;24.00;35.60;;;;;;5008173;28;19924;-53
2023/01/19 14:00:56;;;;;;;;;;;24.00;35.70;;;;;;5007648;28;19957;-52
2023/01/19 14:03:22;;;;;;;;;;;24.00;35.80;;;;;;5011497;28;19961;-52
2023/01/19 14:05:51;;;;;;;;;;;24.00;35.70;;;;;;4998981;28;20453;-53
2023/01/19 14:08:17;;;;;;;;;;;24.00;35.60;;;;;;4998840;28;20427;-52
2023/01/19 14:10:47;;;;;;;;;;;24.00;35.60;;;;;;5000135;28;19918;-52
2023/01/19 14:13:16;;;;;;;;;;;24.00;35.70;;;;;;4996772;28;20393;-52
2023/01/19 14:15:41;;;;;;;;;;;24.00;35.70;;;;;;4994430;28;19968;-53
2023/01/19 14:18:10;;;;;;;;;;;24.10;35.80;;;;;;5032029;28;19910;-52
2023/01/19 14:20:36;;;;;;;;;;;24.00;35.80;;;;;;4993751;28;20275;-52
2023/01/19 14:23:01;;;;;;;;;;;24.00;35.80;;;;;;4995842;28;19929;-51
2023/01/19 14:25:27;;;;;;;;;;;24.00;36.00;;;;;;4998167;28;19968;-53
2023/01/19 14:28:12;;;;;;;;;;;23.90;35.90;;;;;;5001222;28;20391;-53